createdAt,value
2017-07-13T00:00:18.013Z,0
2017-07-13T00:01:18.759Z,0
2017-07-13T00:02:19.477Z,0
2017-07-13T00:03:20.198Z,0
2017-07-13T00:04:20.920Z,0
2017-07-13T00:05:21.644Z,0
2017-07-13T00:06:22.360Z,0
2017-07-13T00:07:23.086Z,0
2017-07-13T00:08:23.803Z,0
2017-07-13T00:09:24.529Z,0
2017-07-13T00:10:25.270Z,0
2017-07-13T00:11:25.991Z,0
2017-07-13T00:12:26.709Z,0
2017-07-13T00:13:27.455Z,0
2017-07-13T00:14:28.172Z,0
2017-07-13T00:15:28.894Z,0
2017-07-13T00:16:29.621Z,0
2017-07-13T00:17:30.335Z,0
2017-07-13T00:18:31.060Z,0
2017-07-13T00:19:31.779Z,0
2017-07-13T00:20:32.505Z,0
2017-07-13T00:21:33.224Z,0
2017-07-13T00:22:33.943Z,0
2017-07-13T00:23:34.663Z,0
2017-07-13T00:24:35.382Z,0
2017-07-13T00:25:36.105Z,0
2017-07-13T00:26:36.827Z,0
2017-07-13T00:27:37.549Z,0
2017-07-13T00:28:38.279Z,0
2017-07-13T00:29:38.994Z,0
2017-07-13T00:30:39.734Z,0
2017-07-13T00:31:40.443Z,0
2017-07-13T00:32:41.229Z,0
2017-07-13T00:33:41.931Z,0
2017-07-13T00:34:42.597Z,0
2017-07-13T00:35:43.320Z,0
2017-07-13T00:36:44.041Z,0
2017-07-13T00:37:44.762Z,0
2017-07-13T00:38:45.482Z,0
2017-07-13T00:39:46.223Z,0
2017-07-13T00:40:46.947Z,0
2017-07-13T00:41:47.667Z,0
2017-07-13T00:42:48.388Z,0
2017-07-13T00:43:49.921Z,0
2017-07-13T00:44:50.644Z,0
2017-07-13T00:45:51.365Z,0
2017-07-13T00:46:52.087Z,0
2017-07-13T00:47:52.810Z,0
2017-07-13T00:48:53.531Z,0
2017-07-13T00:49:54.256Z,0
2017-07-13T00:50:54.978Z,0
2017-07-13T00:51:55.697Z,0
2017-07-13T00:52:56.445Z,0
2017-07-13T00:53:57.162Z,0
2017-07-13T00:54:57.884Z,0
2017-07-13T00:55:58.609Z,0
2017-07-13T00:56:59.332Z,0
2017-07-13T00:58:00.051Z,0
2017-07-13T00:59:00.771Z,0
2017-07-13T01:00:01.499Z,0
2017-07-13T01:01:02.245Z,0
2017-07-13T01:02:02.962Z,0
2017-07-13T01:03:03.684Z,0
2017-07-13T01:04:04.405Z,0
2017-07-13T01:05:05.129Z,0
2017-07-13T01:06:05.848Z,0
2017-07-13T01:07:06.566Z,0
2017-07-13T01:08:07.286Z,0
2017-07-13T01:09:08.008Z,0
2017-07-13T01:10:08.733Z,0
2017-07-13T01:11:09.474Z,0
2017-07-13T01:12:10.198Z,0
2017-07-13T01:13:10.918Z,0
2017-07-13T01:14:11.640Z,0
2017-07-13T01:15:12.361Z,0
2017-07-13T01:17:14.011Z,0
2017-07-13T01:18:14.738Z,0
2017-07-13T01:19:15.461Z,0
2017-07-13T01:20:16.187Z,0
2017-07-13T01:21:16.908Z,0
2017-07-13T01:22:17.626Z,0
2017-07-13T01:23:18.348Z,0
2017-07-13T01:24:19.070Z,0
2017-07-13T01:25:19.821Z,0
2017-07-13T01:26:20.541Z,0
2017-07-13T01:27:21.261Z,0
2017-07-13T01:28:21.985Z,0
2017-07-13T01:29:22.708Z,0
2017-07-13T01:30:23.429Z,0
2017-07-13T01:31:24.151Z,0
2017-07-13T01:32:24.877Z,0
2017-07-13T01:33:25.599Z,0
2017-07-13T01:34:26.323Z,0
2017-07-13T01:35:27.046Z,0
2017-07-13T01:36:27.767Z,0
2017-07-13T01:37:28.489Z,0
2017-07-13T01:38:29.216Z,0
2017-07-13T01:39:29.936Z,0
2017-07-13T01:40:30.656Z,0
2017-07-13T01:41:31.380Z,0
2017-07-13T01:42:32.101Z,0
2017-07-13T01:43:32.825Z,0
2017-07-13T01:44:33.569Z,0
2017-07-13T01:45:34.312Z,0
2017-07-13T01:46:35.039Z,0
2017-07-13T01:47:35.763Z,0
2017-07-13T01:48:36.485Z,0
2017-07-13T01:49:37.214Z,0
2017-07-13T01:50:37.935Z,0
2017-07-13T01:51:38.661Z,0
2017-07-13T01:52:39.410Z,0
2017-07-13T01:53:40.128Z,0
2017-07-13T01:54:40.859Z,0
2017-07-13T01:55:41.576Z,0
2017-07-13T01:56:42.297Z,0
2017-07-13T01:57:43.023Z,0
2017-07-13T01:58:43.765Z,0
2017-07-13T01:59:44.493Z,0
2017-07-13T02:00:45.209Z,0
2017-07-13T02:01:45.931Z,0
2017-07-13T02:02:46.652Z,0
2017-07-13T02:03:47.384Z,0
2017-07-13T02:04:48.098Z,0
2017-07-13T02:05:48.820Z,0
2017-07-13T02:06:49.546Z,0
2017-07-13T02:07:50.268Z,0
2017-07-13T02:08:51.015Z,0
2017-07-13T02:09:51.717Z,0
2017-07-13T02:10:52.469Z,0
2017-07-13T02:11:53.154Z,0
2017-07-13T02:12:53.904Z,0
2017-07-13T02:13:54.625Z,0
2017-07-13T02:14:55.375Z,0
2017-07-13T02:15:56.095Z,0
2017-07-13T02:16:56.827Z,0
2017-07-13T02:17:57.544Z,0
2017-07-13T02:18:58.268Z,0
2017-07-13T02:19:58.991Z,0
2017-07-13T02:20:59.716Z,0
2017-07-13T02:22:00.438Z,0
2017-07-13T02:23:01.162Z,0
2017-07-13T02:24:01.903Z,0
2017-07-13T02:25:02.629Z,0
2017-07-13T02:26:03.351Z,0
2017-07-13T02:27:04.077Z,0
2017-07-13T02:28:04.800Z,0
2017-07-13T02:29:05.519Z,0
2017-07-13T02:30:06.244Z,0
2017-07-13T02:31:06.969Z,0
2017-07-13T02:32:07.716Z,0
2017-07-13T02:33:08.436Z,0
2017-07-13T02:34:09.156Z,0
2017-07-13T02:35:09.881Z,0
2017-07-13T02:36:10.626Z,0
2017-07-13T02:37:11.355Z,0
2017-07-13T02:38:12.074Z,0
2017-07-13T02:39:12.793Z,0
2017-07-13T02:40:13.513Z,0
2017-07-13T02:41:14.235Z,0
2017-07-13T02:42:14.954Z,0
2017-07-13T02:43:15.679Z,0
2017-07-13T02:44:16.402Z,0
2017-07-13T02:45:17.125Z,0
2017-07-13T02:46:17.848Z,0
2017-07-13T02:47:18.573Z,0
2017-07-13T02:48:19.294Z,0
2017-07-13T02:49:20.018Z,0
2017-07-13T02:50:20.740Z,0
2017-07-13T02:51:21.487Z,0
2017-07-13T02:52:22.205Z,0
2017-07-13T02:53:22.931Z,0
2017-07-13T02:54:23.653Z,0
2017-07-13T02:55:24.378Z,0
2017-07-13T02:56:25.100Z,0
2017-07-13T02:57:25.827Z,0
2017-07-13T02:58:26.549Z,0
2017-07-13T02:59:27.272Z,0
2017-07-13T03:00:27.995Z,0
2017-07-13T03:01:28.723Z,0
2017-07-13T03:02:29.446Z,0
2017-07-13T03:03:30.168Z,0
2017-07-13T03:04:30.897Z,0
2017-07-13T03:05:31.642Z,0
2017-07-13T03:06:32.370Z,0
2017-07-13T03:07:33.094Z,0
2017-07-13T03:08:33.818Z,0
2017-07-13T03:09:34.539Z,0
2017-07-13T03:10:35.290Z,0
2017-07-13T03:11:36.011Z,0
2017-07-13T03:12:36.739Z,0
2017-07-13T03:13:37.460Z,0
2017-07-13T03:14:38.182Z,0
2017-07-13T03:15:38.908Z,0
2017-07-13T03:16:39.634Z,0
2017-07-13T03:17:40.356Z,0
2017-07-13T03:18:41.082Z,0
2017-07-13T03:19:41.807Z,5
2017-07-13T03:20:42.531Z,5
2017-07-13T03:21:43.277Z,5
2017-07-13T03:22:44.006Z,5
2017-07-13T03:23:44.735Z,5
2017-07-13T03:24:45.458Z,5
2017-07-13T03:25:46.181Z,5
2017-07-13T03:26:46.909Z,5
2017-07-13T03:27:47.632Z,5
2017-07-13T03:28:48.360Z,5
2017-07-13T03:29:49.082Z,5
2017-07-13T03:30:49.811Z,10
2017-07-13T03:31:50.533Z,10
2017-07-13T03:32:51.261Z,10
2017-07-13T03:33:51.990Z,10
2017-07-13T03:34:52.716Z,10
2017-07-13T03:35:53.437Z,10
2017-07-13T03:36:54.163Z,10
2017-07-13T03:37:54.891Z,15
2017-07-13T03:38:55.620Z,15
2017-07-13T03:39:56.348Z,15
2017-07-13T03:40:57.069Z,15
2017-07-13T03:41:57.796Z,15
2017-07-13T03:42:58.523Z,15
2017-07-13T03:43:59.248Z,20
2017-07-13T03:44:59.971Z,20
2017-07-13T03:46:00.695Z,20
2017-07-13T03:47:01.420Z,20
2017-07-13T03:48:02.168Z,20
2017-07-13T03:49:02.916Z,25
2017-07-13T03:50:03.641Z,25
2017-07-13T03:51:04.369Z,25
2017-07-13T03:52:05.097Z,25
2017-07-13T03:53:05.822Z,25
2017-07-13T03:57:23.387Z,30
2017-07-13T03:58:24.111Z,30
2017-07-13T03:59:24.851Z,30
2017-07-13T04:00:25.581Z,35
2017-07-13T04:01:26.304Z,35
2017-07-13T04:02:27.026Z,35
2017-07-13T04:03:27.748Z,35
2017-07-13T04:04:28.474Z,40
2017-07-13T04:05:29.217Z,40
2017-07-13T04:06:29.942Z,40
2017-07-13T04:07:30.695Z,40
2017-07-13T04:08:31.411Z,40
2017-07-13T04:09:32.158Z,40
2017-07-13T04:10:32.881Z,40
2017-07-13T04:11:33.609Z,40
2017-07-13T04:12:34.332Z,45
2017-07-13T04:13:35.054Z,45
2017-07-13T04:14:35.779Z,45
2017-07-13T04:15:36.500Z,45
2017-07-13T04:16:37.228Z,45
2017-07-13T04:17:37.977Z,45
2017-07-13T04:18:38.705Z,45
2017-07-13T04:19:39.426Z,50
2017-07-13T04:20:40.152Z,50
2017-07-13T04:21:40.874Z,50
2017-07-13T04:22:41.596Z,50
2017-07-13T04:23:42.325Z,50
2017-07-13T04:24:43.048Z,55
2017-07-13T04:25:43.771Z,55
2017-07-13T04:26:44.499Z,55
2017-07-13T04:27:45.223Z,60
2017-07-13T04:28:45.968Z,60
2017-07-13T04:29:46.697Z,55
2017-07-13T04:30:47.418Z,60
2017-07-13T04:31:48.145Z,60
2017-07-13T04:32:48.868Z,60
2017-07-13T04:33:49.597Z,60
2017-07-13T04:34:50.344Z,60
2017-07-13T04:35:51.072Z,60
2017-07-13T04:36:51.816Z,65
2017-07-13T04:37:52.543Z,65
2017-07-13T04:38:53.267Z,65
2017-07-13T04:39:53.993Z,65
2017-07-13T04:40:54.719Z,65
2017-07-13T04:41:55.440Z,70
2017-07-13T04:42:56.166Z,70
2017-07-13T04:43:56.890Z,75
2017-07-13T04:44:57.636Z,75
2017-07-13T04:45:58.384Z,80
2017-07-13T04:46:59.113Z,80
2017-07-13T04:47:59.838Z,85
2017-07-13T04:49:00.588Z,90
2017-07-13T04:50:01.313Z,95
2017-07-13T04:51:02.037Z,95
2017-07-13T04:52:02.764Z,100
2017-07-13T04:53:03.491Z,100
2017-07-13T04:54:04.240Z,100
2017-07-13T04:55:04.989Z,100
2017-07-13T04:56:05.711Z,100
2017-07-13T04:57:06.438Z,105
2017-07-13T04:58:07.162Z,105
2017-07-13T04:59:07.961Z,105
2017-07-13T05:00:08.659Z,105
2017-07-13T05:01:09.367Z,110
2017-07-13T05:02:10.095Z,110
2017-07-13T05:03:10.845Z,110
2017-07-13T05:04:11.567Z,110
2017-07-13T05:05:12.298Z,110
2017-07-13T05:06:13.027Z,110
2017-07-13T05:07:13.755Z,105
2017-07-13T05:08:14.483Z,105
2017-07-13T05:09:15.210Z,105
2017-07-13T05:10:15.932Z,100
2017-07-13T05:11:16.658Z,100
2017-07-13T05:12:17.384Z,100
2017-07-13T05:13:18.108Z,100
2017-07-13T05:14:18.839Z,105
2017-07-13T05:15:19.567Z,105
2017-07-13T05:16:20.294Z,105
2017-07-13T05:17:21.019Z,105
2017-07-13T05:18:21.742Z,110
2017-07-13T05:19:22.474Z,110
2017-07-13T05:20:23.195Z,115
2017-07-13T05:21:23.924Z,115
2017-07-13T05:22:24.650Z,115
2017-07-13T05:23:25.378Z,120
2017-07-13T05:24:26.107Z,120
2017-07-13T05:25:26.831Z,125
2017-07-13T05:26:27.582Z,125
2017-07-13T05:27:28.309Z,130
2017-07-13T05:28:29.037Z,130
2017-07-13T05:29:29.761Z,130
2017-07-13T05:30:30.486Z,135
2017-07-13T05:31:31.211Z,135
2017-07-13T05:32:31.939Z,140
2017-07-13T05:33:32.666Z,140
2017-07-13T05:34:33.392Z,140
2017-07-13T05:35:34.113Z,145
2017-07-13T05:36:34.842Z,145
2017-07-13T05:37:35.567Z,145
2017-07-13T05:38:36.298Z,145
2017-07-13T05:39:37.024Z,155
2017-07-13T05:40:37.748Z,150
2017-07-13T05:41:38.497Z,150
2017-07-13T05:42:39.242Z,150
2017-07-13T05:43:39.970Z,155
2017-07-13T05:44:40.721Z,155
2017-07-13T05:45:41.445Z,155
2017-07-13T05:46:42.175Z,155
2017-07-13T05:47:42.900Z,155
2017-07-13T05:48:43.651Z,155
2017-07-13T05:49:44.373Z,160
2017-07-13T05:50:45.126Z,155
2017-07-13T05:51:45.849Z,160
2017-07-13T05:52:46.575Z,155
2017-07-13T05:53:47.300Z,160
2017-07-13T05:54:48.031Z,155
2017-07-13T05:55:48.759Z,160
2017-07-13T05:56:49.492Z,160
2017-07-13T05:57:50.241Z,160
2017-07-13T05:58:50.989Z,160
2017-07-13T05:59:51.714Z,160
2017-07-13T06:00:52.441Z,160
2017-07-13T06:01:53.171Z,160
2017-07-13T06:02:53.898Z,160
2017-07-13T06:03:54.622Z,160
2017-07-13T06:04:55.349Z,160
2017-07-13T06:05:56.079Z,160
2017-07-13T06:06:56.805Z,160
2017-07-13T06:07:57.534Z,165
2017-07-13T06:08:58.260Z,165
2017-07-13T06:09:58.988Z,165
2017-07-13T06:10:59.723Z,165
2017-07-13T06:12:00.443Z,165
2017-07-13T06:13:01.174Z,165
2017-07-13T06:14:01.902Z,170
2017-07-13T06:15:02.625Z,170
2017-07-13T06:16:03.352Z,170
2017-07-13T06:17:04.079Z,170
2017-07-13T06:18:04.803Z,170
2017-07-13T06:19:05.534Z,170
2017-07-13T06:20:06.262Z,170
2017-07-13T06:21:06.990Z,170
2017-07-13T06:22:07.718Z,175
2017-07-13T06:23:08.444Z,175
2017-07-13T06:24:09.171Z,175
2017-07-13T06:25:09.902Z,175
2017-07-13T06:26:10.630Z,175
2017-07-13T06:27:11.379Z,175
2017-07-13T06:28:12.103Z,175
2017-07-13T06:29:12.829Z,175
2017-07-13T06:30:13.553Z,175
2017-07-13T06:31:14.290Z,170
2017-07-13T06:32:15.011Z,170
2017-07-13T06:33:15.761Z,170
2017-07-13T06:34:16.487Z,170
2017-07-13T06:35:17.236Z,175
2017-07-13T06:36:17.970Z,175
2017-07-13T06:37:18.717Z,175
2017-07-13T06:38:19.449Z,175
2017-07-13T06:39:20.177Z,170
2017-07-13T06:40:20.927Z,170
2017-07-13T06:41:21.675Z,170
2017-07-13T06:42:22.426Z,180
2017-07-13T06:43:23.176Z,175
2017-07-13T06:44:23.906Z,175
2017-07-13T06:45:24.634Z,175
2017-07-13T06:46:25.362Z,175
2017-07-13T06:47:26.089Z,180
2017-07-13T06:48:26.819Z,180
2017-07-13T06:49:27.547Z,185
2017-07-13T06:50:28.284Z,185
2017-07-13T06:51:29.011Z,185
2017-07-13T06:52:29.740Z,185
2017-07-13T06:53:30.474Z,190
2017-07-13T06:54:31.214Z,185
2017-07-13T06:55:31.955Z,190
2017-07-13T06:56:32.680Z,190
2017-07-13T06:57:33.408Z,195
2017-07-13T06:58:34.133Z,195
2017-07-13T06:59:34.867Z,195
2017-07-13T07:00:35.592Z,200
2017-07-13T07:01:36.320Z,200
2017-07-13T07:02:37.049Z,200
2017-07-13T07:03:37.777Z,205
2017-07-13T07:04:38.526Z,200
2017-07-13T07:05:39.254Z,200
2017-07-13T07:06:40.001Z,195
2017-07-13T07:07:40.732Z,195
2017-07-13T07:08:41.465Z,190
2017-07-13T07:09:42.193Z,195
2017-07-13T07:10:42.921Z,195
2017-07-13T07:11:43.648Z,200
2017-07-13T07:12:44.377Z,200
2017-07-13T07:13:45.109Z,200
2017-07-13T07:14:45.833Z,200
2017-07-13T07:15:46.567Z,200
2017-07-13T07:16:47.299Z,200
2017-07-13T07:17:48.026Z,200
2017-07-13T07:18:48.752Z,195
2017-07-13T07:19:49.486Z,200
2017-07-13T07:20:50.237Z,200
2017-07-13T07:21:50.971Z,200
2017-07-13T07:22:51.693Z,200
2017-07-13T07:23:52.420Z,200
2017-07-13T07:24:53.166Z,205
2017-07-13T07:25:53.900Z,205
2017-07-13T07:26:54.626Z,205
2017-07-13T07:27:55.378Z,205
2017-07-13T07:28:56.109Z,210
2017-07-13T07:29:56.839Z,210
2017-07-13T07:30:57.570Z,210
2017-07-13T07:31:58.301Z,205
2017-07-13T07:32:59.026Z,210
2017-07-13T07:33:59.756Z,210
2017-07-13T07:35:00.485Z,210
2017-07-13T07:36:01.212Z,220
2017-07-13T07:37:01.939Z,225
2017-07-13T07:38:02.684Z,220
2017-07-13T07:39:03.417Z,220
2017-07-13T07:40:04.141Z,225
2017-07-13T07:41:04.897Z,225
2017-07-13T07:42:05.628Z,230
2017-07-13T07:43:06.356Z,235
2017-07-13T07:44:07.086Z,235
2017-07-13T07:45:07.815Z,245
2017-07-13T07:46:08.547Z,245
2017-07-13T07:47:09.271Z,255
2017-07-13T07:48:10.000Z,265
2017-07-13T07:49:10.729Z,270
2017-07-13T07:50:11.467Z,270
2017-07-13T07:51:12.220Z,275
2017-07-13T07:52:12.954Z,280
2017-07-13T07:53:13.681Z,265
2017-07-13T07:54:14.418Z,485
2017-07-13T07:55:15.147Z,355
2017-07-13T07:56:15.882Z,1210
2017-07-13T07:57:16.618Z,1105
2017-07-13T07:58:17.353Z,1295
2017-07-13T07:59:18.110Z,1150
2017-07-13T08:00:18.841Z,1000
2017-07-13T08:01:19.577Z,1265
2017-07-13T08:02:20.332Z,1200
2017-07-13T08:03:21.067Z,1150
2017-07-13T08:04:21.805Z,1205
2017-07-13T08:05:22.544Z,1250
2017-07-13T08:06:23.279Z,1260
2017-07-13T08:07:24.018Z,1195
2017-07-13T08:08:24.761Z,1465
2017-07-13T08:09:25.499Z,1530
2017-07-13T08:10:26.244Z,1590
2017-07-13T08:11:27.006Z,1530
2017-07-13T08:12:27.747Z,1510
2017-07-13T08:13:28.493Z,1505
2017-07-13T08:14:29.264Z,1455
2017-07-13T08:15:30.027Z,1410
2017-07-13T08:16:30.775Z,1455
2017-07-13T08:17:31.523Z,1480
2017-07-13T08:18:32.287Z,1550
2017-07-13T08:19:33.031Z,1540
2017-07-13T08:20:33.771Z,415
2017-07-13T08:21:34.512Z,1610
2017-07-13T08:22:35.252Z,450
2017-07-13T08:23:35.998Z,1670
2017-07-13T08:24:36.743Z,1580
2017-07-13T08:25:37.479Z,1625
2017-07-13T08:26:38.224Z,1165
2017-07-13T08:27:38.962Z,1660
2017-07-13T08:28:39.707Z,1500
2017-07-13T08:29:40.471Z,1170
2017-07-13T08:30:41.208Z,1580
2017-07-13T08:31:41.950Z,870
2017-07-13T08:32:42.689Z,1740
2017-07-13T08:33:43.436Z,660
2017-07-13T08:34:44.172Z,495
2017-07-13T08:35:44.932Z,440
2017-07-13T08:36:45.672Z,410
2017-07-13T08:37:46.411Z,395
2017-07-13T08:38:47.155Z,400
2017-07-13T08:39:47.889Z,420
2017-07-13T08:40:48.628Z,440
2017-07-13T08:41:49.367Z,450
2017-07-13T08:42:50.103Z,435
2017-07-13T08:43:50.840Z,555
2017-07-13T08:44:51.605Z,1765
2017-07-13T08:45:52.340Z,545
2017-07-13T08:46:53.096Z,880
2017-07-13T08:47:53.859Z,540
2017-07-13T08:48:54.596Z,670
2017-07-13T08:49:55.335Z,1635
2017-07-13T08:50:56.072Z,1450
2017-07-13T08:51:56.814Z,2050
2017-07-13T08:52:57.557Z,2055
2017-07-13T08:53:58.296Z,755
2017-07-13T08:54:59.037Z,810
2017-07-13T08:55:59.775Z,595
2017-07-13T08:57:00.513Z,600
2017-07-13T08:58:01.254Z,670
2017-07-13T08:59:01.992Z,595
2017-07-13T09:00:02.732Z,585
2017-07-13T09:01:03.490Z,595
2017-07-13T09:02:04.232Z,655
2017-07-13T09:03:04.970Z,1270
2017-07-13T09:04:05.711Z,1670
2017-07-13T09:05:06.445Z,535
2017-07-13T09:06:07.183Z,570
2017-07-13T09:07:07.925Z,845
2017-07-13T09:08:08.687Z,505
2017-07-13T09:09:09.425Z,470
2017-07-13T09:10:10.164Z,450
2017-07-13T09:11:10.898Z,450
2017-07-13T09:12:11.657Z,455
2017-07-13T09:13:12.398Z,455
2017-07-13T09:14:13.134Z,505
2017-07-13T09:15:13.876Z,1825
2017-07-13T09:16:14.635Z,2290
2017-07-13T09:17:15.374Z,2230
2017-07-13T09:18:16.124Z,2105
2017-07-13T09:19:16.857Z,2115
2017-07-13T09:20:17.607Z,2165
2017-07-13T09:21:18.346Z,2150
2017-07-13T09:22:19.088Z,2170
2017-07-13T09:23:19.831Z,2210
2017-07-13T09:24:20.579Z,2240
2017-07-13T09:25:21.324Z,2285
2017-07-13T09:26:22.064Z,2295
2017-07-13T09:27:22.808Z,730
2017-07-13T09:28:23.551Z,660
2017-07-13T09:29:24.293Z,530
2017-07-13T09:30:25.036Z,455
2017-07-13T09:31:25.773Z,430
2017-07-13T09:32:26.513Z,425
2017-07-13T09:33:27.254Z,420
2017-07-13T09:34:27.999Z,430
2017-07-13T09:35:28.740Z,450
2017-07-13T09:36:29.476Z,465
2017-07-13T09:37:30.217Z,510
2017-07-13T09:38:30.959Z,890
2017-07-13T09:39:31.722Z,470
2017-07-13T09:40:32.462Z,435
2017-07-13T09:41:33.200Z,430
2017-07-13T09:42:33.941Z,450
2017-07-13T09:43:34.673Z,465
2017-07-13T09:44:35.427Z,460
2017-07-13T09:45:36.167Z,450
2017-07-13T09:46:36.903Z,415
2017-07-13T09:47:37.641Z,385
2017-07-13T09:48:38.380Z,365
2017-07-13T09:49:39.121Z,370
2017-07-13T09:50:39.881Z,385
2017-07-13T09:51:40.618Z,390
2017-07-13T09:52:41.361Z,430
2017-07-13T09:53:42.124Z,510
2017-07-13T09:54:42.869Z,735
2017-07-13T09:55:43.610Z,1705
2017-07-13T09:56:44.346Z,2365
2017-07-13T09:57:45.089Z,2500
2017-07-13T09:58:45.836Z,2415
2017-07-13T09:59:46.579Z,2265
2017-07-13T10:00:47.325Z,2235
2017-07-13T10:01:48.069Z,2390
2017-07-13T10:02:48.810Z,1355
2017-07-13T10:03:49.553Z,740
2017-07-13T10:04:50.294Z,875
2017-07-13T10:05:51.036Z,550
2017-07-13T10:06:51.796Z,500
2017-07-13T10:07:52.539Z,465
2017-07-13T10:08:53.277Z,455
2017-07-13T10:09:54.022Z,435
2017-07-13T10:10:54.758Z,425
2017-07-13T10:11:55.493Z,415
2017-07-13T10:12:56.237Z,405
2017-07-13T10:13:56.973Z,395
2017-07-13T10:14:57.733Z,385
2017-07-13T10:15:58.482Z,375
2017-07-13T10:16:59.229Z,370
2017-07-13T10:17:59.991Z,375
2017-07-13T10:19:00.729Z,390
2017-07-13T10:20:01.488Z,405
2017-07-13T10:21:02.232Z,420
2017-07-13T10:22:02.972Z,440
2017-07-13T10:23:03.709Z,465
2017-07-13T10:24:04.466Z,490
2017-07-13T10:25:05.233Z,540
2017-07-13T10:26:05.969Z,655
2017-07-13T10:27:06.735Z,1400
2017-07-13T10:28:07.476Z,2665
2017-07-13T10:29:08.236Z,2380
2017-07-13T10:30:08.975Z,2750
2017-07-13T10:31:09.718Z,3055
2017-07-13T10:32:10.460Z,2940
2017-07-13T10:33:11.207Z,2625
2017-07-13T10:34:11.971Z,2710
2017-07-13T10:35:12.715Z,2800
2017-07-13T10:36:13.454Z,2835
2017-07-13T10:37:14.202Z,2910
2017-07-13T10:38:14.944Z,2945
2017-07-13T10:39:15.688Z,2835
2017-07-13T10:40:16.456Z,1155
2017-07-13T10:41:17.208Z,545
2017-07-13T10:42:17.949Z,440
2017-07-13T10:43:18.693Z,415
2017-07-13T10:44:19.433Z,405
2017-07-13T10:45:20.176Z,400
2017-07-13T10:46:20.914Z,395
2017-07-13T10:47:21.656Z,400
2017-07-13T10:48:22.391Z,395
2017-07-13T10:49:23.138Z,390
2017-07-13T10:50:23.899Z,390
2017-07-13T10:51:24.641Z,390
2017-07-13T10:52:25.375Z,390
2017-07-13T10:53:26.115Z,395
2017-07-13T10:54:26.857Z,420
2017-07-13T10:55:27.592Z,430
2017-07-13T10:56:28.336Z,450
2017-07-13T10:57:29.070Z,475
2017-07-13T10:58:29.809Z,510
2017-07-13T10:59:30.549Z,545
2017-07-13T11:00:31.288Z,550
2017-07-13T11:01:32.021Z,555
2017-07-13T11:02:32.781Z,815
2017-07-13T11:03:33.520Z,740
2017-07-13T11:04:34.261Z,2220
2017-07-13T11:05:35.027Z,2580
2017-07-13T11:06:35.764Z,2600
2017-07-13T11:07:36.526Z,2600
2017-07-13T11:08:37.268Z,2650
2017-07-13T11:09:38.016Z,2775
2017-07-13T11:10:38.761Z,2895
2017-07-13T11:11:39.501Z,2925
2017-07-13T11:12:40.243Z,2935
2017-07-13T11:13:41.009Z,2825
2017-07-13T11:14:41.754Z,2840
2017-07-13T11:15:42.502Z,2985
2017-07-13T11:16:43.255Z,3005
2017-07-13T11:17:44.031Z,2930
2017-07-13T11:18:44.786Z,2985
2017-07-13T11:19:45.537Z,2985
2017-07-13T11:20:46.293Z,2955
2017-07-13T11:21:47.048Z,2850
2017-07-13T11:22:47.797Z,2260
2017-07-13T11:23:48.555Z,2100
2017-07-13T11:24:49.307Z,1820
2017-07-13T11:25:50.063Z,975
2017-07-13T11:26:50.810Z,1740
2017-07-13T11:27:51.562Z,750
2017-07-13T11:28:52.317Z,740
2017-07-13T11:29:53.062Z,740
2017-07-13T11:30:53.809Z,720
2017-07-13T11:31:54.553Z,775
2017-07-13T11:32:55.318Z,915
2017-07-13T11:33:56.086Z,1990
2017-07-13T11:34:56.855Z,1125
2017-07-13T11:35:57.603Z,2725
2017-07-13T11:36:58.354Z,640
2017-07-13T11:37:59.094Z,580
2017-07-13T11:38:59.841Z,555
2017-07-13T11:40:00.579Z,540
2017-07-13T11:41:01.317Z,525
2017-07-13T11:42:02.061Z,515
2017-07-13T11:43:02.799Z,510
2017-07-13T11:44:03.562Z,520
2017-07-13T11:45:04.302Z,565
2017-07-13T11:46:05.065Z,650
2017-07-13T11:47:05.826Z,645
2017-07-13T11:48:06.592Z,740
2017-07-13T11:49:07.359Z,735
2017-07-13T11:50:08.092Z,750
2017-07-13T11:51:08.832Z,775
2017-07-13T11:52:09.575Z,830
2017-07-13T11:53:10.312Z,815
2017-07-13T11:54:11.050Z,960
2017-07-13T11:55:11.789Z,2945
2017-07-13T11:56:12.552Z,1540
2017-07-13T11:57:13.317Z,1275
2017-07-13T11:58:14.057Z,1110
2017-07-13T11:59:14.796Z,1890
2017-07-13T12:00:15.537Z,2745
2017-07-13T12:01:16.281Z,2890
2017-07-13T12:02:17.027Z,2815
2017-07-13T12:03:17.768Z,2760
2017-07-13T12:04:18.515Z,2870
2017-07-13T12:05:19.259Z,3050
2017-07-13T12:06:20.003Z,3015
2017-07-13T12:07:20.755Z,2900
2017-07-13T12:08:21.502Z,2925
2017-07-13T12:09:22.255Z,2360
2017-07-13T12:10:23.006Z,855
2017-07-13T12:11:23.761Z,1355
2017-07-13T12:12:24.511Z,935
2017-07-13T12:13:25.256Z,840
2017-07-13T12:14:26.026Z,960
2017-07-13T12:15:26.770Z,1060
2017-07-13T12:16:27.537Z,1050
2017-07-13T12:17:28.286Z,950
2017-07-13T12:18:29.046Z,1120
2017-07-13T12:19:29.790Z,1725
2017-07-13T12:20:30.531Z,1240
2017-07-13T12:21:31.294Z,985
2017-07-13T12:22:32.059Z,1140
2017-07-13T12:23:32.803Z,1210
2017-07-13T12:24:33.565Z,1205
2017-07-13T12:25:34.307Z,2265
2017-07-13T12:26:35.047Z,1965
2017-07-13T12:27:35.809Z,2435
2017-07-13T12:28:36.554Z,1640
2017-07-13T12:29:37.298Z,2105
2017-07-13T12:30:38.042Z,2150
2017-07-13T12:31:38.793Z,3055
2017-07-13T12:32:39.560Z,3070
2017-07-13T12:33:40.308Z,3155
2017-07-13T12:34:41.064Z,3175
2017-07-13T12:35:41.817Z,3195
2017-07-13T12:36:42.570Z,3055
2017-07-13T12:37:43.323Z,2150
2017-07-13T12:38:44.097Z,675
2017-07-13T12:39:44.847Z,1430
2017-07-13T12:40:45.595Z,650
2017-07-13T12:41:46.346Z,1200
2017-07-13T12:42:47.120Z,775
2017-07-13T12:43:47.892Z,720
2017-07-13T12:44:48.643Z,875
2017-07-13T12:45:49.395Z,1965
2017-07-13T12:46:50.144Z,950
2017-07-13T12:47:50.889Z,620
2017-07-13T12:48:51.637Z,545
2017-07-13T12:49:52.403Z,530
2017-07-13T12:50:53.148Z,535
2017-07-13T12:51:53.896Z,525
2017-07-13T12:52:54.633Z,535
2017-07-13T12:53:55.396Z,555
2017-07-13T12:54:56.162Z,560
2017-07-13T12:55:56.930Z,545
2017-07-13T12:56:57.664Z,520
2017-07-13T12:57:58.404Z,495
2017-07-13T12:58:59.143Z,490
2017-07-13T12:59:59.881Z,490
2017-07-13T13:01:00.622Z,500
2017-07-13T13:02:01.361Z,525
2017-07-13T13:03:02.099Z,555
2017-07-13T13:04:02.838Z,555
2017-07-13T13:05:03.578Z,560
2017-07-13T13:06:04.317Z,540
2017-07-13T13:07:05.056Z,540
2017-07-13T13:08:05.793Z,520
2017-07-13T13:09:06.552Z,520
2017-07-13T13:10:07.294Z,495
2017-07-13T13:11:08.052Z,505
2017-07-13T13:12:08.790Z,540
2017-07-13T13:13:09.531Z,545
2017-07-13T13:14:10.270Z,575
2017-07-13T13:15:11.032Z,750
2017-07-13T13:16:11.767Z,2375
2017-07-13T13:17:12.529Z,2780
2017-07-13T13:18:13.270Z,2635
2017-07-13T13:19:14.012Z,710
2017-07-13T13:20:14.774Z,680
2017-07-13T13:21:15.539Z,725
2017-07-13T13:22:16.284Z,2810
2017-07-13T13:23:17.021Z,2750
2017-07-13T13:24:17.762Z,650
2017-07-13T13:25:18.498Z,535
2017-07-13T13:26:19.243Z,500
2017-07-13T13:27:19.981Z,445
2017-07-13T13:28:20.722Z,410
2017-07-13T13:29:21.457Z,400
2017-07-13T13:30:22.197Z,395
2017-07-13T13:31:22.935Z,385
2017-07-13T13:32:23.673Z,380
2017-07-13T13:33:24.413Z,370
2017-07-13T13:34:25.155Z,370
2017-07-13T13:35:25.889Z,370
2017-07-13T13:36:26.630Z,370
2017-07-13T13:37:27.399Z,370
2017-07-13T13:38:28.148Z,370
2017-07-13T13:39:28.890Z,370
2017-07-13T13:40:29.632Z,385
2017-07-13T13:41:30.372Z,415
2017-07-13T13:42:31.132Z,395
2017-07-13T13:43:31.865Z,405
2017-07-13T13:44:32.604Z,415
2017-07-13T13:45:33.359Z,425
2017-07-13T13:46:34.099Z,440
2017-07-13T13:47:34.836Z,490
2017-07-13T13:48:35.575Z,1270
2017-07-13T13:49:36.312Z,1010
2017-07-13T13:50:37.074Z,2625
2017-07-13T13:51:37.835Z,1670
2017-07-13T13:52:38.574Z,2430
2017-07-13T13:53:39.316Z,615
2017-07-13T13:54:40.080Z,525
2017-07-13T13:55:40.817Z,505
2017-07-13T13:56:41.574Z,510
2017-07-13T13:57:42.321Z,520
2017-07-13T13:58:43.050Z,545
2017-07-13T13:59:43.786Z,560
2017-07-13T14:00:44.527Z,605
2017-07-13T14:01:45.268Z,1020
2017-07-13T14:02:46.005Z,2390
2017-07-13T14:03:46.746Z,2545
2017-07-13T14:04:47.484Z,695
2017-07-13T14:05:48.220Z,510
2017-07-13T14:06:48.963Z,535
2017-07-13T14:07:49.699Z,935
2017-07-13T14:08:50.463Z,2405
2017-07-13T14:09:51.202Z,2425
2017-07-13T14:10:51.941Z,2490
2017-07-13T14:11:52.705Z,735